Time;durP1;ratioP1;P1;durP2;ratioP2;P2;SDS_P1;SDS_P2;PMS_P1;PMS_P2;Temp;Humidity;BMP_temperature;BMP_pressure;BME280_temperature;BME280_humidity;BME280_pressure;Samples;Min_cycle;Max_cycle;Signal;HPM_P1;HPM_P2
2023/07/29 00:00:48;;;;;;;0.20;0.20;;;;;;;;;;5110536;28;20048;-52
2023/07/29 00:03:13;;;;;;;0.10;0.10;;;;;;;;;;5105174;28;20590;-53
2023/07/29 00:05:39;;;;;;;0.10;0.10;;;;;;;;;;5111955;28;20044;-52
2023/07/29 00:08:05;;;;;;;0.20;0.20;;;;;;;;;;5112848;28;20058;-53
2023/07/29 00:10:31;;;;;;;0.10;0.10;;;;;;;;;;5112370;28;20167;-53
2023/07/29 00:12:57;;;;;;;0.10;0.10;;;;;;;;;;5111641;28;20210;-52
2023/07/29 00:15:23;;;;;;;0.13;0.13;;;;;;;;;;5113084;28;20067;-52
2023/07/29 00:17:48;;;;;;;0.20;0.20;;;;;;;;;;5112557;28;20135;-53
2023/07/29 00:20:14;;;;;;;0.10;0.10;;;;;;;;;;5112028;28;20104;-53
2023/07/29 00:22:39;;;;;;;0.10;0.10;;;;;;;;;;5092331;28;20157;-52
2023/07/29 00:25:05;;;;;;;0.10;0.10;;;;;;;;;;5111760;28;20083;-53
2023/07/29 00:27:31;;;;;;;0.20;0.20;;;;;;;;;;5113350;28;20063;-52
2023/07/29 00:29:56;;;;;;;0.10;0.10;;;;;;;;;;5112698;28;20105;-52
2023/07/29 00:32:22;;;;;;;0.20;0.20;;;;;;;;;;5112878;28;20427;-52
2023/07/29 00:34:47;;;;;;;0.10;0.10;;;;;;;;;;5111877;28;20225;-52
2023/07/29 00:37:13;;;;;;;0.10;0.10;;;;;;;;;;5110142;28;20054;-52
2023/07/29 00:39:39;;;;;;;0.10;0.10;;;;;;;;;;5112099;28;20044;-53
2023/07/29 00:42:05;;;;;;;0.17;0.17;;;;;;;;;;5111987;28;20052;-52
2023/07/29 00:44:31;;;;;;;0.10;0.10;;;;;;;;;;5112871;28;20090;-53
2023/07/29 00:46:57;;;;;;;0.20;0.20;;;;;;;;;;5112690;28;20481;-53
2023/07/29 00:49:22;;;;;;;0.20;0.20;;;;;;;;;;5112899;28;20054;-52
2023/07/29 00:51:48;;;;;;;0.20;0.20;;;;;;;;;;5112846;28;20055;-52
2023/07/29 00:54:13;;;;;;;0.10;0.10;;;;;;;;;;5113043;28;20047;-53
2023/07/29 00:56:39;;;;;;;0.10;0.10;;;;;;;;;;5112737;28;20055;-53
2023/07/29 00:59:05;;;;;;;0.10;0.10;;;;;;;;;;5110575;28;20048;-53
2023/07/29 01:01:31;;;;;;;0.20;0.20;;;;;;;;;;5111991;28;20074;-53
2023/07/29 01:03:57;;;;;;;0.20;0.20;;;;;;;;;;5111592;28;20040;-52
2023/07/29 01:06:43;;;;;;;0.20;0.20;;;;;;;;;;5113024;28;20407;-52
2023/07/29 01:09:15;;;;;;;0.10;0.10;;;;;;;;;;5097132;28;20056;-52
2023/07/29 01:11:54;;;;;;;0.20;0.20;;;;;;;;;;5110606;28;20500;-53
2023/07/29 01:14:24;;;;;;;0.20;0.20;;;;;;;;;;5112010;28;20043;-53
2023/07/29 01:16:55;;;;;;;0.20;0.20;;;;;;;;;;5111952;28;20047;-53
2023/07/29 01:19:33;;;;;;;0.20;0.20;;;;;;;;;;5112435;28;20459;-52
2023/07/29 01:21:59;;;;;;;0.20;0.20;;;;;;;;;;5111867;28;20047;-51
2023/07/29 01:24:24;;;;;;;0.20;0.20;;;;;;;;;;5112409;28;20051;-53
2023/07/29 01:26:50;;;;;;;0.20;0.20;;;;;;;;;;5111886;28;20130;-53
2023/07/29 01:29:15;;;;;;;0.10;0.10;;;;;;;;;;5112544;28;20093;-52
2023/07/29 01:31:43;;;;;;;0.10;0.10;;;;;;;;;;5111732;28;20198;-52
2023/07/29 01:34:19;;;;;;;0.10;0.10;;;;;;;;;;5111965;28;20051;-52
2023/07/29 01:36:46;;;;;;;0.10;0.10;;;;;;;;;;5110067;28;20488;-52
2023/07/29 01:39:14;;;;;;;0.10;0.10;;;;;;;;;;5111115;28;20047;-52
2023/07/29 01:41:40;;;;;;;0.10;0.10;;;;;;;;;;5110928;28;20071;-53
2023/07/29 01:44:06;;;;;;;0.20;0.20;;;;;;;;;;5112038;28;20048;-52
2023/07/29 01:46:33;;;;;;;0.20;0.20;;;;;;;;;;5111798;28;20615;-52
2023/07/29 01:48:59;;;;;;;0.20;0.20;;;;;;;;;;5111078;28;20055;-52
2023/07/29 01:51:24;;;;;;;0.10;0.10;;;;;;;;;;5111730;28;20044;-52
2023/07/29 01:53:50;;;;;;;0.10;0.10;;;;;;;;;;5112180;28;20094;-53
2023/07/29 01:56:16;;;;;;;0.10;0.10;;;;;;;;;;5112031;28;20052;-52
2023/07/29 01:58:41;;;;;;;0.10;0.10;;;;;;;;;;5111678;28;20104;-50
2023/07/29 02:01:07;;;;;;;0.10;0.10;;;;;;;;;;5111307;28;20078;-52
2023/07/29 02:03:32;;;;;;;0.20;0.20;;;;;;;;;;5110597;28;20589;-52
2023/07/29 02:05:58;;;;;;;0.20;0.20;;;;;;;;;;5109412;28;20083;-52
2023/07/29 02:08:23;;;;;;;0.20;0.20;;;;;;;;;;5110906;28;20146;-53
2023/07/29 02:10:49;;;;;;;0.20;0.20;;;;;;;;;;5110464;28;20467;-53
2023/07/29 02:13:15;;;;;;;0.10;0.10;;;;;;;;;;5110891;28;20419;-53
2023/07/29 02:15:40;;;;;;;0.10;0.10;;;;;;;;;;5110714;28;20102;-53
2023/07/29 02:18:07;;;;;;;0.15;0.15;;;;;;;;;;5110850;28;20065;-52
2023/07/29 02:20:33;;;;;;;0.10;0.10;;;;;;;;;;5110466;28;20062;-52
2023/07/29 02:22:58;;;;;;;0.20;0.20;;;;;;;;;;5110707;28;20075;-51
2023/07/29 02:25:23;;;;;;;0.10;0.10;;;;;;;;;;5110472;28;20043;-53
2023/07/29 02:27:49;;;;;;;0.20;0.20;;;;;;;;;;5110476;28;20051;-52
2023/07/29 02:30:15;;;;;;;0.20;0.20;;;;;;;;;;5110715;28;20494;-52
2023/07/29 02:32:40;;;;;;;0.20;0.20;;;;;;;;;;5110630;28;20499;-52
2023/07/29 02:35:06;;;;;;;0.20;0.20;;;;;;;;;;5110382;28;20094;-61
2023/07/29 02:37:32;;;;;;;0.30;0.30;;;;;;;;;;5110060;28;20108;-61
2023/07/29 02:39:57;;;;;;;0.20;0.20;;;;;;;;;;5109195;28;20055;-60
2023/07/29 02:42:23;;;;;;;0.20;0.20;;;;;;;;;;5109918;28;20050;-60
2023/07/29 02:44:48;;;;;;;0.20;0.20;;;;;;;;;;5110387;28;20054;-61
2023/07/29 02:47:14;;;;;;;0.13;0.13;;;;;;;;;;5110985;28;20086;-60
2023/07/29 02:49:39;;;;;;;0.10;0.10;;;;;;;;;;5111583;28;20051;-60
2023/07/29 02:52:05;;;;;;;0.10;0.10;;;;;;;;;;5110999;28;20043;-61
2023/07/29 02:54:30;;;;;;;0.17;0.17;;;;;;;;;;5111224;28;20047;-60
2023/07/29 02:56:56;;;;;;;0.10;0.10;;;;;;;;;;5111197;28;20052;-60
2023/07/29 02:59:21;;;;;;;0.20;0.20;;;;;;;;;;5111192;28;20074;-60
2023/07/29 03:01:47;;;;;;;0.10;0.10;;;;;;;;;;5112452;27;20044;-59
2023/07/29 03:04:13;;;;;;;0.20;0.20;;;;;;;;;;5128924;28;20127;-60
2023/07/29 03:06:38;;;;;;;0.20;0.20;;;;;;;;;;5113992;28;20097;-60
2023/07/29 03:09:04;;;;;;;0.13;0.13;;;;;;;;;;5114432;28;20051;-60
2023/07/29 03:11:30;;;;;;;0.20;0.20;;;;;;;;;;5113553;28;20469;-61
2023/07/29 03:13:56;;;;;;;0.20;0.20;;;;;;;;;;5113659;28;20507;-60
2023/07/29 03:16:22;;;;;;;0.20;0.20;;;;;;;;;;5114444;28;20054;-61
2023/07/29 03:18:48;;;;;;;0.10;0.10;;;;;;;;;;5114126;28;20050;-60
2023/07/29 03:21:14;;;;;;;0.13;0.13;;;;;;;;;;5114015;28;20044;-60
2023/07/29 03:23:39;;;;;;;0.10;0.10;;;;;;;;;;5114737;28;20044;-60
2023/07/29 03:26:10;;;;;;;0.20;0.20;;;;;;;;;;5113873;28;20407;-59
2023/07/29 03:28:36;;;;;;;0.20;0.20;;;;;;;;;;5113765;28;20066;-61
2023/07/29 03:31:01;;;;;;;0.20;0.20;;;;;;;;;;5113803;28;20104;-60
2023/07/29 03:33:27;;;;;;;0.10;0.10;;;;;;;;;;5114037;28;20079;-60
2023/07/29 03:35:52;;;;;;;0.10;0.10;;;;;;;;;;5113822;28;20493;-60
2023/07/29 03:38:18;;;;;;;0.10;0.10;;;;;;;;;;5113824;28;20488;-61
2023/07/29 03:40:44;;;;;;;0.10;0.10;;;;;;;;;;5112041;28;20391;-61
2023/07/29 03:43:09;;;;;;;0.10;0.10;;;;;;;;;;5113053;28;20492;-60
2023/07/29 03:45:35;;;;;;;0.10;0.10;;;;;;;;;;5112928;28;20050;-61
2023/07/29 03:48:01;;;;;;;0.10;0.10;;;;;;;;;;5113576;28;20043;-60
2023/07/29 03:50:27;;;;;;;0.10;0.10;;;;;;;;;;5113917;28;20609;-60
2023/07/29 03:52:53;;;;;;;0.10;0.10;;;;;;;;;;5114189;28;20051;-62
2023/07/29 03:55:19;;;;;;;0.10;0.10;;;;;;;;;;5114068;28;20074;-60
2023/07/29 03:57:44;;;;;;;0.10;0.10;;;;;;;;;;5113992;28;20479;-61
2023/07/29 04:00:10;;;;;;;0.10;0.10;;;;;;;;;;5113827;28;20055;-61
2023/07/29 04:02:37;;;;;;;0.10;0.10;;;;;;;;;;5112443;28;20055;-61
2023/07/29 04:05:03;;;;;;;0.20;0.20;;;;;;;;;;5113511;28;20040;-61
2023/07/29 04:07:29;;;;;;;0.20;0.20;;;;;;;;;;5113126;28;20043;-60
2023/07/29 04:09:54;;;;;;;0.10;0.10;;;;;;;;;;5112832;28;20058;-60
2023/07/29 04:12:21;;;;;;;0.17;0.17;;;;;;;;;;5112482;28;20044;-60
2023/07/29 04:14:47;;;;;;;0.20;0.20;;;;;;;;;;5112798;28;20056;-60
2023/07/29 04:17:12;;;;;;;0.10;0.10;;;;;;;;;;5112791;28;20066;-61
2023/07/29 04:19:38;;;;;;;0.17;0.17;;;;;;;;;;5113323;28;20040;-60
2023/07/29 04:22:03;;;;;;;0.20;0.20;;;;;;;;;;5112925;28;20082;-60
2023/07/29 04:24:29;;;;;;;0.13;0.13;;;;;;;;;;5113660;28;20043;-61
2023/07/29 04:26:54;;;;;;;0.10;0.10;;;;;;;;;;5113081;28;20050;-60
2023/07/29 04:29:22;;;;;;;0.10;0.10;;;;;;;;;;5113202;28;20041;-61
2023/07/29 04:31:48;;;;;;;0.10;0.10;;;;;;;;;;5112554;28;20047;-60
2023/07/29 04:34:14;;;;;;;0.20;0.20;;;;;;;;;;5113209;28;20097;-60
2023/07/29 04:36:39;;;;;;;0.10;0.10;;;;;;;;;;5112977;28;20052;-60
2023/07/29 04:39:05;;;;;;;0.10;0.10;;;;;;;;;;5113156;28;20067;-61
2023/07/29 04:41:30;;;;;;;0.20;0.20;;;;;;;;;;5111839;28;20466;-61
2023/07/29 04:43:56;;;;;;;0.20;0.20;;;;;;;;;;5083556;27;1003200;-61
2023/07/29 04:46:22;;;;;;;0.17;0.17;;;;;;;;;;5133326;27;20055;-60
2023/07/29 04:48:49;;;;;;;0.10;0.10;;;;;;;;;;5133866;27;20074;-61
2023/07/29 04:51:15;;;;;;;0.20;0.20;;;;;;;;;;5134161;27;20043;-61
2023/07/29 04:53:41;;;;;;;0.32;0.32;;;;;;;;;;5134105;27;20051;-61
2023/07/29 04:56:07;;;;;;;0.20;0.20;;;;;;;;;;5133485;27;20051;-60
2023/07/29 04:58:35;;;;;;;0.20;0.20;;;;;;;;;;5133817;27;20043;-61
2023/07/29 05:01:02;;;;;;;0.20;0.20;;;;;;;;;;5132537;27;20578;-60
2023/07/29 05:03:29;;;;;;;0.20;0.20;;;;;;;;;;5132959;27;20085;-61
2023/07/29 05:05:57;;;;;;;0.20;0.20;;;;;;;;;;5133427;27;20283;-61
2023/07/29 05:08:23;;;;;;;0.10;0.10;;;;;;;;;;5132686;27;20524;-60
2023/07/29 05:10:50;;;;;;;0.10;0.10;;;;;;;;;;5130452;27;20476;-60
2023/07/29 05:13:16;;;;;;;0.20;0.20;;;;;;;;;;5133184;27;20115;-61
2023/07/29 05:15:42;;;;;;;0.13;0.13;;;;;;;;;;5132831;27;20043;-60
2023/07/29 05:18:09;;;;;;;0.10;0.10;;;;;;;;;;5132245;27;20085;-61
2023/07/29 05:20:35;;;;;;;0.17;0.17;;;;;;;;;;5128232;27;20112;-61
2023/07/29 05:23:01;;;;;;;0.10;0.10;;;;;;;;;;5131696;27;20047;-61
2023/07/29 05:25:28;;;;;;;0.10;0.10;;;;;;;;;;5132691;27;20501;-60
2023/07/29 05:27:55;;;;;;;0.20;0.20;;;;;;;;;;5133166;27;20043;-61
2023/07/29 05:30:21;;;;;;;0.10;0.10;;;;;;;;;;5126551;27;20562;-61
2023/07/29 05:32:47;;;;;;;0.10;0.10;;;;;;;;;;5121753;27;20075;-60
2023/07/29 05:35:14;;;;;;;0.20;0.20;;;;;;;;;;5132886;27;20039;-60
2023/07/29 05:37:40;;;;;;;0.20;0.20;;;;;;;;;;5132519;27;20051;-60
2023/07/29 05:40:08;;;;;;;0.20;0.20;;;;;;;;;;5129128;27;20112;-60
2023/07/29 05:42:34;;;;;;;0.20;0.20;;;;;;;;;;5125809;27;20043;-61
2023/07/29 05:45:01;;;;;;;0.17;0.17;;;;;;;;;;5130978;27;20070;-61
2023/07/29 05:47:27;;;;;;;0.10;0.10;;;;;;;;;;5114980;27;20055;-60
2023/07/29 05:49:54;;;;;;;0.20;0.20;;;;;;;;;;5131881;27;20075;-61
2023/07/29 05:52:20;;;;;;;0.20;0.20;;;;;;;;;;5132299;27;20384;-60
2023/07/29 05:54:46;;;;;;;0.20;0.20;;;;;;;;;;5131968;27;20104;-60
2023/07/29 05:57:13;;;;;;;0.10;0.10;;;;;;;;;;5132264;27;20072;-61
2023/07/29 05:59:39;;;;;;;0.13;0.13;;;;;;;;;;5132117;27;20080;-61
2023/07/29 06:02:06;;;;;;;0.10;0.10;;;;;;;;;;5131846;27;20047;-60
2023/07/29 06:04:32;;;;;;;0.10;0.10;;;;;;;;;;5132152;27;20043;-61
2023/07/29 06:06:59;;;;;;;0.10;0.10;;;;;;;;;;5131570;27;20051;-60
2023/07/29 06:09:25;;;;;;;0.10;0.10;;;;;;;;;;5131872;27;20047;-60
2023/07/29 06:11:51;;;;;;;0.10;0.10;;;;;;;;;;5129163;27;20415;-61
2023/07/29 06:14:21;;;;;;;0.10;0.10;;;;;;;;;;5132261;27;20050;-60
2023/07/29 06:16:47;;;;;;;0.13;0.13;;;;;;;;;;5131924;27;20456;-61
2023/07/29 06:19:13;;;;;;;0.10;0.10;;;;;;;;;;5132420;27;20054;-59
2023/07/29 06:21:39;;;;;;;0.20;0.20;;;;;;;;;;5115821;27;20048;-60
2023/07/29 06:24:05;;;;;;;0.10;0.10;;;;;;;;;;5129457;27;20119;-60
2023/07/29 06:26:35;;;;;;;0.20;0.20;;;;;;;;;;5132650;27;20053;-60
2023/07/29 06:29:02;;;;;;;0.10;0.10;;;;;;;;;;5132447;27;20544;-60
2023/07/29 06:31:29;;;;;;;0.10;0.10;;;;;;;;;;5131960;27;20108;-61
2023/07/29 06:33:55;;;;;;;0.20;0.20;;;;;;;;;;5132138;27;20427;-61
2023/07/29 06:36:21;;;;;;;0.10;0.10;;;;;;;;;;5132051;27;20051;-60
2023/07/29 06:38:48;;;;;;;0.17;0.17;;;;;;;;;;5132968;27;20047;-60
2023/07/29 06:41:14;;;;;;;0.10;0.10;;;;;;;;;;5131922;27;20073;-60
2023/07/29 06:43:43;;;;;;;0.20;0.20;;;;;;;;;;5132101;28;20151;-60
2023/07/29 06:46:09;;;;;;;0.10;0.10;;;;;;;;;;5131189;28;20059;-60
2023/07/29 06:48:36;;;;;;;0.10;0.10;;;;;;;;;;5132290;28;20047;-60
2023/07/29 06:51:02;;;;;;;0.10;0.10;;;;;;;;;;5130741;28;20134;-60
2023/07/29 06:53:28;;;;;;;0.10;0.10;;;;;;;;;;5132543;28;20104;-60
2023/07/29 06:55:56;;;;;;;0.10;0.10;;;;;;;;;;5132382;28;20441;-60
2023/07/29 06:58:22;;;;;;;0.10;0.10;;;;;;;;;;5132095;28;20103;-61
2023/07/29 07:00:48;;;;;;;0.20;0.20;;;;;;;;;;5121791;28;20047;-61
2023/07/29 07:03:14;;;;;;;0.10;0.10;;;;;;;;;;5111242;28;20044;-60
2023/07/29 07:05:41;;;;;;;0.10;0.10;;;;;;;;;;5111546;28;20051;-60
2023/07/29 07:08:07;;;;;;;0.10;0.10;;;;;;;;;;5123341;28;20400;-60
2023/07/29 07:10:33;;;;;;;0.10;0.10;;;;;;;;;;5124252;28;20043;-60
2023/07/29 07:13:00;;;;;;;0.10;0.10;;;;;;;;;;5130288;28;20055;-60
2023/07/29 07:15:26;;;;;;;0.17;0.17;;;;;;;;;;5131716;28;20540;-60
2023/07/29 07:17:52;;;;;;;0.10;0.10;;;;;;;;;;5132019;28;20479;-60
2023/07/29 07:20:18;;;;;;;0.10;0.10;;;;;;;;;;5129643;28;20058;-61
2023/07/29 07:22:45;;;;;;;0.10;0.10;;;;;;;;;;5131481;28;20051;-61
2023/07/29 07:25:11;;;;;;;0.10;0.10;;;;;;;;;;5131373;28;20100;-60
2023/07/29 07:27:37;;;;;;;0.10;0.10;;;;;;;;;;5131883;28;20070;-60
2023/07/29 07:30:04;;;;;;;0.20;0.20;;;;;;;;;;5128410;28;21402;-60
2023/07/29 07:32:30;;;;;;;0.10;0.10;;;;;;;;;;5117101;28;20243;-61
2023/07/29 07:34:56;;;;;;;0.10;0.10;;;;;;;;;;5130998;28;20055;-61
2023/07/29 07:37:22;;;;;;;0.20;0.20;;;;;;;;;;5131341;28;20074;-61
2023/07/29 07:39:49;;;;;;;0.20;0.20;;;;;;;;;;5131684;28;20076;-60
2023/07/29 07:42:15;;;;;;;0.20;0.20;;;;;;;;;;5131192;27;20131;-60
2023/07/29 07:44:41;;;;;;;0.20;0.20;;;;;;;;;;5131218;28;20412;-61
2023/07/29 07:47:08;;;;;;;0.20;0.20;;;;;;;;;;5130744;27;20053;-60
2023/07/29 07:49:34;;;;;;;0.20;0.20;;;;;;;;;;5132941;27;21425;-60
2023/07/29 07:52:00;;;;;;;0.10;0.10;;;;;;;;;;5134458;27;20116;-60
2023/07/29 07:54:26;;;;;;;0.20;0.20;;;;;;;;;;5135430;27;20047;-60
2023/07/29 07:56:52;;;;;;;0.20;0.20;;;;;;;;;;5135332;27;20043;-60
2023/07/29 07:59:19;;;;;;;0.17;0.17;;;;;;;;;;5134932;27;20050;-60
2023/07/29 08:01:45;;;;;;;0.20;0.20;;;;;;;;;;5131633;27;20043;-61
2023/07/29 08:04:11;;;;;;;0.20;0.20;;;;;;;;;;5135069;27;20039;-60
2023/07/29 08:06:37;;;;;;;0.20;0.20;;;;;;;;;;5134753;27;20054;-60
2023/07/29 08:09:04;;;;;;;0.17;0.17;;;;;;;;;;5134250;27;20047;-60
2023/07/29 08:11:31;;;;;;;0.20;0.20;;;;;;;;;;5133661;27;20078;-60
2023/07/29 08:13:58;;;;;;;0.10;0.10;;;;;;;;;;5133880;27;20104;-60
2023/07/29 08:16:24;;;;;;;0.20;0.20;;;;;;;;;;5134131;27;20457;-60
2023/07/29 08:18:50;;;;;;;0.10;0.10;;;;;;;;;;5134738;27;20048;-60
2023/07/29 08:21:16;;;;;;;0.10;0.10;;;;;;;;;;5134174;27;20043;-60
2023/07/29 08:23:43;;;;;;;0.10;0.10;;;;;;;;;;5133763;27;20039;-60
2023/07/29 08:26:09;;;;;;;0.10;0.10;;;;;;;;;;5134747;27;20080;-60
2023/07/29 08:28:36;;;;;;;0.20;0.20;;;;;;;;;;5134879;27;20092;-60
2023/07/29 08:31:03;;;;;;;0.10;0.10;;;;;;;;;;5127131;27;20074;-60
2023/07/29 08:33:29;;;;;;;0.20;0.20;;;;;;;;;;5134841;27;20047;-61
2023/07/29 08:35:56;;;;;;;0.13;0.13;;;;;;;;;;5134678;27;20047;-60
2023/07/29 08:38:22;;;;;;;0.20;0.20;;;;;;;;;;5134497;27;20556;-60
2023/07/29 08:40:52;;;;;;;0.20;0.20;;;;;;;;;;5124402;27;20051;-60
2023/07/29 08:43:19;;;;;;;0.20;0.20;;;;;;;;;;5114187;28;20055;-59
2023/07/29 08:45:46;;;;;;;0.20;0.20;;;;;;;;;;5113445;28;20047;-59
2023/07/29 08:48:15;;;;;;;0.10;0.10;;;;;;;;;;5130499;27;20043;-60
2023/07/29 08:50:43;;;;;;;0.15;0.15;;;;;;;;;;5131453;27;20101;-60
2023/07/29 08:53:09;;;;;;;0.10;0.10;;;;;;;;;;5134412;27;20051;-60
2023/07/29 08:55:36;;;;;;;0.10;0.10;;;;;;;;;;5134292;27;20115;-60
2023/07/29 08:58:03;;;;;;;0.20;0.20;;;;;;;;;;5133915;27;20051;-60
2023/07/29 09:00:29;;;;;;;0.20;0.20;;;;;;;;;;5121478;27;20469;-60
2023/07/29 09:02:57;;;;;;;0.10;0.10;;;;;;;;;;5134498;27;20092;-60
2023/07/29 09:05:24;;;;;;;0.20;0.20;;;;;;;;;;5134539;27;20043;-60
2023/07/29 09:07:51;;;;;;;0.10;0.10;;;;;;;;;;5134453;27;20047;-60
2023/07/29 09:10:22;;;;;;;0.10;0.10;;;;;;;;;;5133533;27;20043;-60
2023/07/29 09:12:49;;;;;;;0.13;0.13;;;;;;;;;;5133529;27;20046;-60
2023/07/29 09:15:26;;;;;;;0.10;0.10;;;;;;;;;;5133532;27;20059;-60
2023/07/29 09:17:52;;;;;;;0.10;0.10;;;;;;;;;;5127775;27;20078;-60
2023/07/29 09:20:23;;;;;;;0.10;0.10;;;;;;;;;;5128743;27;20039;-60
2023/07/29 09:22:50;;;;;;;0.13;0.13;;;;;;;;;;5113207;28;20044;-60
2023/07/29 09:25:17;;;;;;;0.10;0.10;;;;;;;;;;5130569;27;20508;-60
2023/07/29 09:27:43;;;;;;;0.10;0.10;;;;;;;;;;5133633;27;20047;-60
2023/07/29 09:30:18;;;;;;;0.10;0.10;;;;;;;;;;5129634;27;20131;-60
2023/07/29 09:32:44;;;;;;;0.10;0.10;;;;;;;;;;5116389;27;20558;-60
2023/07/29 09:35:11;;;;;;;0.10;0.10;;;;;;;;;;5133546;27;20092;-59
2023/07/29 09:37:38;;;;;;;0.10;0.10;;;;;;;;;;5133414;27;20047;-60
2023/07/29 09:40:05;;;;;;;0.10;0.10;;;;;;;;;;5132820;27;20076;-60
2023/07/29 09:42:32;;;;;;;0.20;0.20;;;;;;;;;;5133001;27;20536;-60
2023/07/29 09:44:59;;;;;;;0.20;0.20;;;;;;;;;;5133039;27;20487;-60
2023/07/29 09:47:26;;;;;;;0.10;0.10;;;;;;;;;;5133127;27;20051;-60
2023/07/29 09:49:53;;;;;;;0.20;0.20;;;;;;;;;;5132322;27;20453;-60
2023/07/29 09:52:21;;;;;;;0.10;0.10;;;;;;;;;;5131920;27;20104;-60
2023/07/29 09:54:48;;;;;;;0.20;0.20;;;;;;;;;;5133209;27;20067;-60
2023/07/29 09:57:15;;;;;;;0.10;0.10;;;;;;;;;;5133047;27;20047;-60
2023/07/29 09:59:42;;;;;;;0.10;0.10;;;;;;;;;;5124943;27;20471;-60
2023/07/29 10:02:12;;;;;;;0.20;0.20;;;;;;;;;;5132227;27;20190;-59
2023/07/29 10:04:39;;;;;;;0.10;0.10;;;;;;;;;;5132490;27;20070;-60
2023/07/29 10:07:06;;;;;;;0.20;0.20;;;;;;;;;;5133240;27;20127;-60
2023/07/29 10:09:33;;;;;;;0.17;0.17;;;;;;;;;;5132812;27;20047;-60
2023/07/29 10:11:59;;;;;;;0.10;0.10;;;;;;;;;;5132154;27;20112;-60
2023/07/29 10:14:27;;;;;;;0.10;0.10;;;;;;;;;;5133089;27;20095;-60
2023/07/29 10:16:54;;;;;;;0.20;0.20;;;;;;;;;;5132010;27;20437;-60
2023/07/29 10:19:22;;;;;;;0.20;0.20;;;;;;;;;;5131135;27;20043;-60
2023/07/29 10:21:49;;;;;;;0.10;0.10;;;;;;;;;;5115097;27;20540;-60
2023/07/29 10:24:18;;;;;;;0.10;0.10;;;;;;;;;;5112166;28;20096;-60
2023/07/29 10:26:46;;;;;;;0.10;0.10;;;;;;;;;;5126738;27;20104;-60
2023/07/29 10:29:12;;;;;;;0.10;0.10;;;;;;;;;;5132777;27;20100;-60
2023/07/29 10:31:40;;;;;;;0.20;0.20;;;;;;;;;;5130002;27;20532;-60
2023/07/29 10:34:06;;;;;;;0.10;0.10;;;;;;;;;;5131804;27;20429;-60
2023/07/29 10:36:33;;;;;;;0.10;0.10;;;;;;;;;;5131772;27;20078;-60
2023/07/29 10:38:59;;;;;;;0.10;0.10;;;;;;;;;;5131734;27;20467;-60
2023/07/29 10:41:46;;;;;;;0.20;0.20;;;;;;;;;;5131091;27;20467;-60
2023/07/29 10:44:32;;;;;;;0.10;0.10;;;;;;;;;;5116971;28;20083;-60
2023/07/29 10:46:58;;;;;;;0.10;0.10;;;;;;;;;;5116417;28;20047;-60
2023/07/29 10:49:31;;;;;;;0.20;0.20;;;;;;;;;;5131216;28;20090;-60
2023/07/29 10:51:57;;;;;;;0.20;0.20;;;;;;;;;;5128831;27;20443;-60
2023/07/29 10:54:23;;;;;;;0.20;0.20;;;;;;;;;;5130678;28;20083;-60
2023/07/29 10:56:50;;;;;;;0.20;0.20;;;;;;;;;;5131633;28;20050;-60
2023/07/29 11:01:54;;;;;;;0.15;0.15;;;;;;;;;;5176521;27;20145;-57
2023/07/29 11:04:23;;;;;;;0.20;0.20;;;;;;;;;;5150976;27;20042;-57
2023/07/29 11:07:07;;;;;;;0.10;0.10;;;;;;;;;;5169300;27;20074;-57
2023/07/29 11:09:41;;;;;;;0.10;0.10;;;;;;;;;;5169313;27;20050;-57
2023/07/29 11:12:26;;;;;;;0.10;0.10;;;;;;;;;;5168962;27;20054;-57
2023/07/29 11:14:52;;;;;;;0.10;0.10;;;;;;;;;;5153870;27;20098;-57
2023/07/29 11:17:18;;;;;;;0.10;0.10;;;;;;;;;;5169569;27;20514;-57
2023/07/29 11:19:44;;;;;;;0.10;0.10;;;;;;;;;;5169271;27;20455;-57
2023/07/29 11:22:10;;;;;;;0.20;0.20;;;;;;;;;;5168774;27;20046;-58
2023/07/29 11:24:35;;;;;;;0.20;0.20;;;;;;;;;;5169802;27;20099;-60
2023/07/29 11:27:01;;;;;;;0.20;0.20;;;;;;;;;;5169268;27;20452;-60
2023/07/29 11:29:26;;;;;;;0.20;0.20;;;;;;;;;;5169309;27;20088;-60
2023/07/29 11:31:52;;;;;;;0.20;0.20;;;;;;;;;;5169042;27;20042;-60
2023/07/29 11:34:20;;;;;;;0.20;0.20;;;;;;;;;;5169270;27;20482;-60
2023/07/29 11:36:46;;;;;;;;;;;;;;;;;;5169655;27;20043;-60
2023/07/29 11:39:11;;;;;;;0.10;0.10;;;;;;;;;;5169203;27;19923;-60
2023/07/29 11:41:37;;;;;;;0.20;0.20;;;;;;;;;;5167013;27;20054;-60
2023/07/29 11:44:02;;;;;;;0.10;0.10;;;;;;;;;;5168972;27;20049;-60
2023/07/29 11:46:28;;;;;;;0.20;0.20;;;;;;;;;;5169015;27;20098;-60
2023/07/29 11:48:55;;;;;;;0.20;0.20;;;;;;;;;;5169228;27;20053;-60
2023/07/29 11:51:21;;;;;;;0.10;0.10;;;;;;;;;;5169108;27;20497;-60
2023/07/29 11:53:47;;;;;;;0.10;0.10;;;;;;;;;;5168680;27;20046;-59
2023/07/29 11:56:13;;;;;;;0.10;0.10;;;;;;;;;;5166718;27;20379;-60
2023/07/29 11:58:38;;;;;;;0.20;0.20;;;;;;;;;;5168954;27;20082;-59
2023/07/29 12:01:04;;;;;;;0.10;0.10;;;;;;;;;;5156363;27;20518;-60
2023/07/29 12:03:30;;;;;;;0.10;0.10;;;;;;;;;;5149270;27;20043;-60
2023/07/29 12:05:56;;;;;;;0.10;0.10;;;;;;;;;;5168695;27;20130;-60
2023/07/29 12:08:23;;;;;;;0.10;0.10;;;;;;;;;;5168787;27;20061;-60
2023/07/29 12:10:48;;;;;;;0.10;0.10;;;;;;;;;;5168096;27;20539;-60
2023/07/29 12:13:14;;;;;;;0.10;0.10;;;;;;;;;;5154733;27;20046;-60
2023/07/29 12:15:40;;;;;;;0.20;0.20;;;;;;;;;;5154596;27;20077;-60
2023/07/29 12:18:06;;;;;;;0.10;0.10;;;;;;;;;;5154683;27;20050;-60
2023/07/29 12:20:31;;;;;;;0.10;0.10;;;;;;;;;;5153590;27;20191;-60
2023/07/29 12:22:58;;;;;;;0.20;0.20;;;;;;;;;;5153742;27;20104;-59
2023/07/29 12:25:24;;;;;;;0.20;0.20;;;;;;;;;;5154316;27;20039;-59
2023/07/29 12:27:49;;;;;;;0.10;0.10;;;;;;;;;;5153569;27;20110;-60
2023/07/29 12:30:15;;;;;;;0.17;0.17;;;;;;;;;;5153445;27;20054;-60
2023/07/29 12:32:48;;;;;;;0.15;0.15;;;;;;;;;;5154377;27;20038;-60
2023/07/29 12:35:13;;;;;;;0.10;0.10;;;;;;;;;;5152353;27;20042;-60
2023/07/29 12:37:42;;;;;;;0.10;0.10;;;;;;;;;;5154551;27;20053;-60
2023/07/29 12:40:20;;;;;;;0.10;0.10;;;;;;;;;;5153821;27;20042;-60
2023/07/29 12:42:45;;;;;;;0.20;0.20;;;;;;;;;;5154256;27;20053;-60
2023/07/29 12:45:11;;;;;;;0.10;0.10;;;;;;;;;;5154444;27;20043;-60
2023/07/29 12:47:36;;;;;;;0.10;0.10;;;;;;;;;;5154430;27;20402;-60
2023/07/29 12:50:02;;;;;;;0.20;0.20;;;;;;;;;;5151485;27;20475;-60
2023/07/29 12:52:27;;;;;;;0.10;0.10;;;;;;;;;;5133572;28;20508;-60
2023/07/29 12:54:53;;;;;;;0.10;0.10;;;;;;;;;;5146074;27;20134;-60
2023/07/29 12:57:18;;;;;;;0.10;0.10;;;;;;;;;;5152580;27;20100;-60
2023/07/29 12:59:44;;;;;;;0.20;0.20;;;;;;;;;;5152984;27;20050;-60
2023/07/29 13:02:09;;;;;;;0.10;0.10;;;;;;;;;;5153269;27;20469;-60
2023/07/29 13:04:35;;;;;;;0.20;0.20;;;;;;;;;;5154279;27;20074;-60
2023/07/29 13:07:00;;;;;;;0.10;0.10;;;;;;;;;;5154154;27;20050;-60
2023/07/29 13:09:26;;;;;;;0.10;0.10;;;;;;;;;;5154250;27;20047;-60
2023/07/29 13:11:51;;;;;;;0.17;0.17;;;;;;;;;;5153488;27;20047;-60
2023/07/29 13:14:17;;;;;;;0.10;0.10;;;;;;;;;;5154399;27;20505;-60
2023/07/29 13:16:42;;;;;;;0.10;0.10;;;;;;;;;;5153956;27;20043;-60
2023/07/29 13:19:08;;;;;;;0.20;0.20;;;;;;;;;;5154100;27;20058;-60
2023/07/29 13:21:34;;;;;;;0.10;0.10;;;;;;;;;;5153469;27;20043;-59
2023/07/29 13:23:59;;;;;;;0.20;0.20;;;;;;;;;;5152394;27;20064;-59
2023/07/29 13:26:25;;;;;;;0.20;0.20;;;;;;;;;;5153464;27;20075;-60
2023/07/29 13:28:50;;;;;;;0.10;0.10;;;;;;;;;;5153902;27;20530;-60
2023/07/29 13:31:16;;;;;;;0.20;0.20;;;;;;;;;;5147768;27;20439;-60
2023/07/29 13:33:41;;;;;;;0.20;0.20;;;;;;;;;;5153314;27;20050;-60
2023/07/29 13:36:08;;;;;;;0.20;0.20;;;;;;;;;;5153277;27;20047;-60
2023/07/29 13:38:33;;;;;;;0.10;0.10;;;;;;;;;;5153462;27;20448;-60
2023/07/29 13:40:59;;;;;;;0.20;0.20;;;;;;;;;;5152518;27;20058;-60
2023/07/29 13:43:25;;;;;;;0.20;0.20;;;;;;;;;;5153252;27;20095;-60
2023/07/29 13:45:50;;;;;;;0.10;0.10;;;;;;;;;;5153148;27;20053;-60
2023/07/29 13:48:17;;;;;;;0.20;0.20;;;;;;;;;;5152687;27;20115;-60
2023/07/29 13:50:43;;;;;;;0.20;0.20;;;;;;;;;;5153121;27;20043;-60
2023/07/29 13:53:09;;;;;;;0.20;0.20;;;;;;;;;;5153324;27;20047;-60
2023/07/29 13:55:34;;;;;;;0.10;0.10;;;;;;;;;;5153239;27;20043;-60
2023/07/29 13:58:00;;;;;;;0.20;0.20;;;;;;;;;;5162214;27;20260;-60
2023/07/29 14:00:25;;;;;;;0.20;0.20;;;;;;;;;;5151358;27;20043;-61
2023/07/29 14:02:51;;;;;;;0.20;0.20;;;;;;;;;;5152729;27;20050;-60
2023/07/29 14:05:16;;;;;;;0.20;0.20;;;;;;;;;;5152541;27;20051;-60
2023/07/29 14:07:42;;;;;;;0.20;0.20;;;;;;;;;;5152436;27;20474;-60
2023/07/29 14:10:08;;;;;;;0.20;0.20;;;;;;;;;;5152138;27;20410;-60
2023/07/29 14:12:33;;;;;;;0.20;0.20;;;;;;;;;;5151926;27;20050;-60
2023/07/29 14:14:59;;;;;;;0.17;0.17;;;;;;;;;;5152830;27;20177;-60
2023/07/29 14:17:24;;;;;;;0.20;0.20;;;;;;;;;;5152584;27;20046;-60
2023/07/29 14:19:50;;;;;;;0.20;0.20;;;;;;;;;;5152138;27;20047;-60
2023/07/29 14:22:16;;;;;;;0.17;0.17;;;;;;;;;;5152596;27;20051;-59
2023/07/29 14:24:41;;;;;;;0.10;0.10;;;;;;;;;;5151955;27;20498;-60
2023/07/29 14:27:07;;;;;;;0.10;0.10;;;;;;;;;;5151679;27;20472;-59
2023/07/29 14:29:32;;;;;;;0.10;0.10;;;;;;;;;;5152594;27;20099;-60
2023/07/29 14:31:58;;;;;;;0.10;0.10;;;;;;;;;;5152062;27;20054;-60
2023/07/29 14:34:23;;;;;;;0.10;0.10;;;;;;;;;;5151634;27;20039;-60
2023/07/29 14:36:49;;;;;;;0.10;0.10;;;;;;;;;;5152168;27;20050;-60
2023/07/29 14:39:14;;;;;;;0.20;0.20;;;;;;;;;;5151322;27;20046;-60
2023/07/29 14:41:40;;;;;;;0.20;0.20;;;;;;;;;;5137360;27;20050;-60